Time;durP1;ratioP1;P1;durP2;ratioP2;P2;SDS_P1;SDS_P2;PMS_P1;PMS_P2;Temp;Humidity;BMP_temperature;BMP_pressure;BME280_temperature;BME280_humidity;BME280_pressure;Samples;Min_cycle;Max_cycle;Signal;HPM_P1;HPM_P2
2021/06/25 00:01:04;;;;;;;30.27;8.77;;;;;;;27.70;47.10;95193.84;5091487;28;20579;-73
2021/06/25 00:03:31;;;;;;;23.60;8.37;;;;;;;27.77;47.07;95202.03;5092824;28;20203;-73
2021/06/25 00:05:58;;;;;;;17.40;7.40;;;;;;;27.74;47.36;95197.34;5091714;28;20337;-70
2021/06/25 00:08:25;;;;;;;22.03;7.77;;;;;;;27.61;47.93;95194.03;5092242;28;20673;-73
2021/06/25 00:10:52;;;;;;;19.23;7.83;;;;;;;27.54;48.13;95182.34;5091237;28;20696;-73
2021/06/25 00:13:19;;;;;;;22.73;7.73;;;;;;;27.32;49.23;95196.53;5091768;28;20237;-71
2021/06/25 00:15:46;;;;;;;24.17;7.60;;;;;;;27.39;49.24;95197.44;5091702;28;20194;-71
2021/06/25 00:18:14;;;;;;;26.40;9.07;;;;;;;27.24;49.89;95200.97;5091718;28;20547;-75
2021/06/25 00:20:41;;;;;;;23.03;8.13;;;;;;;26.87;51.32;95195.19;5090856;28;20760;-70
2021/06/25 00:23:08;;;;;;;29.93;9.53;;;;;;;26.99;51.15;95197.75;5091530;28;20203;-71
2021/06/25 00:25:35;;;;;;;21.63;7.97;;;;;;;26.70;51.60;95190.19;5091232;28;20223;-74
2021/06/25 00:28:02;;;;;;;25.23;8.43;;;;;;;26.94;51.10;95199.91;5091447;28;20294;-70
2021/06/25 00:30:29;;;;;;;28.53;8.63;;;;;;;26.92;51.29;95200.28;5090250;28;20238;-68
2021/06/25 00:32:57;;;;;;;23.20;8.53;;;;;;;26.98;51.15;95198.88;5091033;28;20206;-71
2021/06/25 00:35:24;;;;;;;24.03;7.23;;;;;;;27.03;51.64;95206.66;5090518;28;20195;-67
2021/06/25 00:37:51;;;;;;;24.43;8.47;;;;;;;26.85;50.88;95178.63;5091029;28;20298;-71
2021/06/25 00:40:18;;;;;;;33.70;8.47;;;;;;;27.01;50.01;95198.16;5090254;28;20259;-71
2021/06/25 00:42:45;;;;;;;25.33;8.30;;;;;;;26.75;49.48;95189.16;5083037;28;20184;-71
2021/06/25 00:45:19;;;;;;;28.43;8.40;;;;;;;26.85;49.38;95177.81;5084088;28;20195;-73
2021/06/25 00:47:51;;;;;;;25.07;7.50;;;;;;;26.89;49.62;95174.09;5078221;28;20241;-69
2021/06/25 00:50:23;;;;;;;26.83;8.53;;;;;;;26.94;49.52;95178.41;5090197;28;20764;-69
2021/06/25 00:52:55;;;;;;;24.87;8.57;;;;;;;27.11;47.68;95180.72;5090600;28;20294;-72
2021/06/25 00:55:23;;;;;;;25.67;9.07;;;;;;;27.16;48.23;95179.63;5090169;28;20197;-70
2021/06/25 00:57:51;;;;;;;25.30;8.47;;;;;;;27.05;48.47;95176.72;5070844;28;20737;-71
2021/06/25 01:00:19;;;;;;;26.67;9.00;;;;;;;26.98;48.56;95163.91;5082843;28;20223;-73
2021/06/25 01:02:46;;;;;;;22.37;8.60;;;;;;;27.01;48.89;95176.66;5076016;28;20194;-70
2021/06/25 01:05:15;;;;;;;24.63;8.50;;;;;;;26.77;49.39;95168.81;5079754;28;20282;-71
2021/06/25 01:07:44;;;;;;;26.97;8.57;;;;;;;26.88;49.21;95180.59;5074320;28;20191;-74
2021/06/25 01:10:12;;;;;;;24.93;8.17;;;;;;;26.78;49.12;95162.34;5079702;28;20199;-69
2021/06/25 01:12:44;;;;;;;30.93;8.63;;;;;;;26.84;49.84;95182.41;5084965;28;20195;-71
2021/06/25 01:15:13;;;;;;;29.33;9.27;;;;;;;26.89;49.93;95186.75;5079653;28;20264;-74
2021/06/25 01:17:43;;;;;;;22.40;8.17;;;;;;;26.74;49.61;95188.34;5089711;28;20188;-72
2021/06/25 01:20:14;;;;;;;25.43;8.47;;;;;;;26.81;49.32;95182.34;5091382;28;20202;-69
2021/06/25 01:22:42;;;;;;;23.90;9.03;;;;;;;26.65;49.80;95190.44;5090892;28;20193;-74
2021/06/25 01:25:17;;;;;;;25.40;9.03;;;;;;;26.68;49.63;95189.75;5090846;28;20199;-71
2021/06/25 01:27:47;;;;;;;34.80;9.20;;;;;;;26.72;50.00;95185.22;5090365;28;20195;-74
2021/06/25 01:30:20;;;;;;;30.83;8.77;;;;;;;26.73;50.33;95180.66;5089809;28;20622;-72
2021/06/25 01:32:48;;;;;;;25.07;9.50;;;;;;;26.73;50.53;95186.03;5090440;28;20252;-75
2021/06/25 01:35:15;;;;;;;21.63;8.20;;;;;;;26.47;50.91;95183.84;5090240;28;20702;-71
2021/06/25 01:37:44;;;;;;;22.53;8.90;;;;;;;26.44;51.08;95189.91;5090286;28;20252;-71
2021/06/25 01:40:13;;;;;;;25.17;9.80;;;;;;;26.18;52.17;95191.56;5089923;28;20282;-70
2021/06/25 01:42:43;;;;;;;18.60;8.63;;;;;;;26.17;51.86;95190.78;5077350;28;20687;-70
2021/06/25 01:45:14;;;;;;;21.77;9.47;;;;;;;26.23;52.02;95181.34;5076143;28;20251;-69
2021/06/25 01:47:44;;;;;;;27.47;9.73;;;;;;;26.28;52.05;95191.03;5076990;28;20598;-72
2021/06/25 01:50:14;;;;;;;37.03;9.40;;;;;;;26.23;52.08;95184.03;5088508;28;20593;-71
2021/06/25 01:52:58;;;;;;;34.67;10.37;;;;;;;25.85;53.03;95173.06;5090114;28;20198;-71
2021/06/25 01:55:27;;;;;;;31.07;9.80;;;;;;;25.96;52.74;95177.59;5089355;28;20190;-71
2021/06/25 01:57:54;;;;;;;23.40;9.90;;;;;;;25.78;53.23;95172.91;5089614;28;20195;-73
2021/06/25 02:00:21;;;;;;;24.43;8.90;;;;;;;25.83;53.32;95176.09;5089928;28;20207;-73
2021/06/25 02:02:48;;;;;;;29.50;9.30;;;;;;;26.04;52.90;95181.25;5085176;28;20191;-77
2021/06/25 02:05:16;;;;;;;27.30;9.43;;;;;;;25.99;53.24;95179.59;5081472;28;20203;-73
2021/06/25 02:07:44;;;;;;;31.13;11.10;;;;;;;26.06;53.10;95184.38;5089974;28;20312;-71
2021/06/25 02:10:13;;;;;;;24.30;9.53;;;;;;;25.87;53.40;95176.97;5080460;28;20230;-72
2021/06/25 02:12:40;;;;;;;28.77;10.10;;;;;;;25.82;53.75;95189.88;5072410;28;20196;-73
2021/06/25 02:15:09;;;;;;;28.00;8.90;;;;;;;25.89;53.62;95188.13;5090230;28;20199;-76
2021/06/25 02:17:37;;;;;;;27.63;10.07;;;;;;;25.33;54.82;95181.22;5089773;28;20303;-70
2021/06/25 02:20:06;;;;;;;25.93;9.20;;;;;;;25.74;54.09;95182.75;5089792;28;20241;-71
2021/06/25 02:22:34;;;;;;;31.20;10.17;;;;;;;25.94;53.64;95181.75;5093563;28;20203;-70
2021/06/25 02:25:02;;;;;;;26.37;9.47;;;;;;;25.94;53.23;95181.75;5093896;28;20203;-75
2021/06/25 02:27:29;;;;;;;30.43;11.17;;;;;;;25.96;53.36;95172.22;5094598;28;20219;-69
2021/06/25 02:29:56;;;;;;;33.17;10.27;;;;;;;25.69;53.43;95164.22;5095643;28;20652;-75
2021/06/25 02:32:23;;;;;;;35.57;9.93;;;;;;;25.95;53.21;95164.50;5094065;28;20238;-74
2021/06/25 02:34:50;;;;;;;28.57;10.37;;;;;;;25.41;54.19;95174.97;5093655;28;20661;-72
2021/06/25 02:37:17;;;;;;;22.33;9.67;;;;;;;25.58;54.06;95179.25;5094226;28;20201;-71
2021/06/25 02:39:44;;;;;;;25.93;9.90;;;;;;;25.06;56.07;95174.72;5082911;28;20339;-70
2021/06/25 02:42:11;;;;;;;28.93;9.90;;;;;;;25.45;54.90;95183.91;5078755;28;20657;-72
2021/06/25 02:44:38;;;;;;;23.93;10.07;;;;;;;25.48;54.98;95177.06;5097051;28;20210;-70
2021/06/25 02:47:05;;;;;;;24.37;10.37;;;;;;;25.66;54.50;95181.00;5092044;28;20635;-76
2021/06/25 02:49:32;;;;;;;29.33;10.07;;;;;;;25.26;55.17;95161.47;5081471;28;20669;-75
2021/06/25 02:51:59;;;;;;;28.37;10.00;;;;;;;25.65;54.68;95179.44;5079222;28;20187;-71
2021/06/25 02:54:26;;;;;;;25.10;9.67;;;;;;;25.56;54.91;95186.88;5092800;28;20270;-69
2021/06/25 02:56:53;;;;;;;20.80;9.20;;;;;;;25.57;54.54;95183.06;5091904;28;20565;-70
2021/06/25 02:59:20;;;;;;;23.23;9.40;;;;;;;25.62;55.16;95185.50;5078748;28;20187;-69
2021/06/25 03:01:47;;;;;;;25.77;9.63;;;;;;;25.51;54.95;95193.25;5092964;28;20260;-70
2021/06/25 03:04:14;;;;;;;30.53;9.80;;;;;;;25.45;55.31;95196.53;5092230;28;20203;-68
2021/06/25 03:06:41;;;;;;;25.57;11.00;;;;;;;25.42;55.33;95194.53;5093659;28;20306;-73
2021/06/25 03:09:08;;;;;;;24.23;9.37;;;;;;;25.35;55.91;95196.97;5093053;28;20282;-71
2021/06/25 03:11:34;;;;;;;31.90;9.43;;;;;;;25.34;55.60;95195.44;5086421;28;20816;-71
2021/06/25 03:14:01;;;;;;;22.07;8.33;;;;;;;25.39;54.89;95193.31;5086248;28;20683;-73
2021/06/25 03:16:28;;;;;;;24.20;8.40;;;;;;;24.92;55.86;95201.13;5093001;28;20209;-72
2021/06/25 03:18:55;;;;;;;21.87;7.97;;;;;;;25.20;55.26;95206.53;5092389;28;20191;-72
2021/06/25 03:21:22;;;;;;;32.13;8.93;;;;;;;25.28;54.75;95189.53;5092969;28;20660;-72
2021/06/25 03:23:49;;;;;;;28.00;8.90;;;;;;;24.92;55.29;95179.69;5092348;28;20196;-67
2021/06/25 03:26:16;;;;;;;26.50;8.90;;;;;;;25.20;55.30;95197.72;5092956;28;20227;-72
2021/06/25 03:28:43;;;;;;;22.97;9.10;;;;;;;25.22;55.05;95193.56;5092230;28;20290;-70
2021/06/25 03:31:10;;;;;;;23.33;8.73;;;;;;;25.16;55.45;95199.50;5092196;28;20223;-73
2021/06/25 03:33:37;;;;;;;28.50;9.70;;;;;;;25.09;55.49;95195.50;5091233;28;20195;-71
2021/06/25 03:36:04;;;;;;;26.93;9.10;;;;;;;25.31;55.56;95201.47;5092322;28;20305;-74
2021/06/25 03:38:32;;;;;;;34.80;9.90;;;;;;;25.09;55.69;95203.53;5077368;28;20269;-71
2021/06/25 03:40:59;;;;;;;29.57;10.47;;;;;;;25.15;55.84;95200.59;5071697;28;20738;-70
2021/06/25 03:43:26;;;;;;;29.10;10.57;;;;;;;25.13;56.27;95200.19;5086239;28;20268;-70
2021/06/25 03:45:53;;;;;;;27.37;10.33;;;;;;;25.23;55.64;95194.34;5078029;28;20286;-74
2021/06/25 03:48:20;;;;;;;31.23;10.90;;;;;;;24.83;56.35;95195.13;5089171;28;20345;-76
2021/06/25 03:50:47;;;;;;;32.57;11.53;;;;;;;24.80;56.20;95187.72;5073693;28;20572;-71
2021/06/25 03:53:14;;;;;;;33.07;10.53;;;;;;;25.13;55.47;95190.22;5082099;28;20226;-69
2021/06/25 03:58:28;;;;;;;31.43;11.17;;;;;;;25.70;55.30;95192.59;5091555;28;21080;-68
2021/06/25 04:00:55;;;;;;;33.07;10.93;;;;;;;25.71;55.71;95204.91;5088267;28;20206;-73
2021/06/25 04:03:22;;;;;;;33.50;11.10;;;;;;;25.39;54.62;95198.69;5091665;28;20209;-74
2021/06/25 04:05:50;;;;;;;33.13;10.63;;;;;;;25.51;54.98;95200.53;5091370;28;20195;-73
2021/06/25 04:08:18;;;;;;;31.53;10.67;;;;;;;25.72;54.81;95209.16;5091479;28;20222;-70
2021/06/25 04:10:45;;;;;;;32.20;10.90;;;;;;;25.83;54.69;95197.59;5091342;28;20285;-71
2021/06/25 04:13:13;;;;;;;24.30;10.63;;;;;;;25.85;54.87;95210.66;5092808;28;20656;-71
2021/06/25 04:15:40;;;;;;;30.83;11.00;;;;;;;25.97;54.59;95205.22;5092206;28;20195;-71
2021/06/25 04:18:07;;;;;;;32.97;10.17;;;;;;;26.04;54.28;95197.38;5092894;28;20577;-71
2021/06/25 04:20:34;;;;;;;34.47;10.90;;;;;;;26.03;54.29;95196.56;5093311;28;20203;-72
2021/06/25 04:23:01;;;;;;;28.37;11.03;;;;;;;26.17;54.07;95201.53;5093100;28;20195;-68
2021/06/25 04:25:28;;;;;;;30.57;9.53;;;;;;;26.22;53.93;95197.81;5093172;28;20262;-69
2021/06/25 04:27:55;;;;;;;29.77;10.30;;;;;;;26.24;53.70;95207.06;5088361;28;20219;-70
2021/06/25 04:30:22;;;;;;;32.43;10.87;;;;;;;26.31;53.43;95204.59;5078111;28;20298;-72
2021/06/25 04:32:49;;;;;;;29.90;10.17;;;;;;;26.24;54.15;95207.06;5090177;28;20713;-73
2021/06/25 04:35:16;;;;;;;33.97;10.30;;;;;;;26.19;55.07;95191.22;5084525;28;20579;-78
2021/06/25 04:37:43;;;;;;;35.77;14.57;;;;;;;26.34;53.96;95205.78;5088787;28;20198;-77
2021/06/25 04:40:12;;;;;;;69.73;52.00;;;;;;;26.29;54.60;95193.41;5089544;28;20221;-76
2021/06/25 04:42:45;;;;;;;44.53;24.63;;;;;;;26.42;54.30;95197.53;5078879;28;20665;-70
2021/06/25 04:45:13;;;;;;;36.37;10.07;;;;;;;26.29;54.12;95190.72;5090599;28;20199;-77
2021/06/25 04:47:41;;;;;;;29.40;9.10;;;;;;;26.39;53.39;95168.69;5090896;28;20218;-74
2021/06/25 04:50:08;;;;;;;36.60;11.10;;;;;;;26.49;53.16;95175.44;5091953;28;20306;-71
2021/06/25 04:52:35;;;;;;;27.60;10.37;;;;;;;26.44;53.61;95184.53;5091726;28;20195;-79
2021/06/25 04:55:03;;;;;;;27.83;10.03;;;;;;;26.54;53.27;95183.22;5091096;28;20195;-69
2021/06/25 04:57:30;;;;;;;44.47;19.87;;;;;;;26.44;54.46;95195.28;5091663;28;20307;-77
2021/06/25 04:59:56;;;;;;;79.60;53.67;;;;;;;26.55;54.51;95193.63;5091305;28;20610;-79
2021/06/25 05:02:23;;;;;;;36.00;17.27;;;;;;;26.77;54.00;95192.22;5090651;28;20601;-73
2021/06/25 05:04:51;;;;;;;32.40;11.83;;;;;;;26.66;53.43;95183.91;5091204;28;20183;-82
2021/06/25 05:07:18;;;;;;;28.73;10.23;;;;;;;26.82;53.05;95189.28;5090891;28;20314;-79
2021/06/25 05:09:44;;;;;;;31.43;10.80;;;;;;;26.63;53.91;95199.97;5090582;28;20195;-63
2021/06/25 05:12:11;;;;;;;32.30;11.47;;;;;;;26.46;53.75;95203.78;5090634;28;20739;-73
2021/06/25 05:14:38;;;;;;;29.63;12.50;;;;;;;26.43;53.80;95206.38;5090252;28;20191;-75
2021/06/25 05:17:05;;;;;;;31.40;11.83;;;;;;;26.84;52.72;95208.56;5090659;28;20194;-74
2021/06/25 05:19:33;;;;;;;33.10;10.67;;;;;;;26.84;52.06;95198.56;5090225;28;20195;-74
2021/06/25 05:22:00;;;;;;;31.27;10.87;;;;;;;26.83;52.62;95191.63;5089104;28;20210;-77
2021/06/25 05:24:26;;;;;;;36.27;12.00;;;;;;;27.06;52.17;95199.81;5089749;28;20677;-74
2021/06/25 05:26:53;;;;;;;36.53;15.50;;;;;;;27.15;51.51;95199.63;5090328;28;20261;-72
2021/06/25 05:29:20;;;;;;;99.40;80.07;;;;;;;27.24;52.08;95197.50;5090254;28;20194;-68
2021/06/25 05:31:47;;;;;;;42.47;13.70;;;;;;;27.25;51.91;95190.97;5090078;28;20770;-71
2021/06/25 05:34:14;;;;;;;27.60;10.97;;;;;;;27.21;51.07;95179.38;5089682;28;20278;-74
2021/06/25 05:36:41;;;;;;;38.33;13.17;;;;;;;27.24;51.36;95194.81;5090007;28;20193;-74
2021/06/25 05:39:08;;;;;;;31.13;10.80;;;;;;;27.27;51.78;95189.50;5079289;28;20202;-71
2021/06/25 05:41:35;;;;;;;40.27;11.60;;;;;;;27.07;52.32;95189.81;5096203;28;20696;-69
2021/06/25 05:44:02;;;;;;;28.80;11.83;;;;;;;27.16;52.51;95188.50;5081909;28;20195;-72
2021/06/25 05:46:29;;;;;;;34.83;12.00;;;;;;;26.86;52.68;95187.47;5090522;28;20199;-73
2021/06/25 05:48:56;;;;;;;25.80;12.13;;;;;;;27.16;52.54;95193.09;5089485;28;20266;-72
2021/06/25 05:51:23;;;;;;;29.43;12.47;;;;;;;26.65;52.89;95189.63;5080842;28;20222;-71
2021/06/25 05:53:50;;;;;;;29.80;10.77;;;;;;;27.24;52.08;95194.81;5085261;28;20207;-72
2021/06/25 05:56:17;;;;;;;35.13;11.90;;;;;;;27.38;51.78;95195.13;5081989;28;20220;-71
2021/06/25 05:58:44;;;;;;;37.47;11.73;;;;;;;27.57;51.46;95197.81;5083618;28;20209;-70
2021/06/25 06:01:11;;;;;;;28.60;11.10;;;;;;;27.64;51.36;95197.94;5089519;28;20194;-73
2021/06/25 06:03:39;;;;;;;31.53;10.87;;;;;;;27.71;51.40;95203.47;5089498;28;20199;-72
2021/06/25 06:06:06;;;;;;;35.87;11.73;;;;;;;27.66;51.36;95201.81;5075462;28;20217;-71
2021/06/25 06:08:33;;;;;;;30.57;11.17;;;;;;;27.55;52.35;95190.09;5079570;28;20676;-75
2021/06/25 06:11:00;;;;;;;34.33;12.10;;;;;;;27.75;50.63;95209.69;5072079;28;20571;-75
2021/06/25 06:13:27;;;;;;;37.93;12.83;;;;;;;27.77;50.81;95202.03;5089970;28;20199;-70
2021/06/25 06:15:55;;;;;;;32.20;11.90;;;;;;;27.76;51.59;95206.66;5089096;28;20195;-72
2021/06/25 06:18:30;;;;;;;29.47;12.07;;;;;;;27.85;50.90;95206.41;5082418;28;20196;-73
2021/06/25 06:20:57;;;;;;;27.60;11.60;;;;;;;27.84;51.86;95207.56;5075439;28;20215;-69
2021/06/25 06:31:44;;;;;;;36.50;12.00;;;;;;;28.13;49.22;95203.47;5089577;28;20310;-71
2021/06/25 06:34:12;;;;;;;37.20;11.40;;;;;;;28.17;49.26;95194.34;5089593;28;20211;-74
2021/06/25 06:36:45;;;;;;;40.03;11.33;;;;;;;28.22;49.86;95196.72;5089922;28;20203;-72
2021/06/25 06:39:13;;;;;;;34.33;11.73;;;;;;;28.24;50.13;95186.38;5069522;28;20206;-73
2021/06/25 06:41:41;;;;;;;28.63;11.17;;;;;;;28.29;50.38;95190.66;5069339;28;20258;-75
2021/06/25 06:44:09;;;;;;;33.30;11.00;;;;;;;28.06;49.11;95190.69;5074327;28;20229;-69
2021/06/25 06:46:36;;;;;;;39.40;12.40;;;;;;;28.10;48.85;95182.66;5089983;28;20211;-72
2021/06/25 06:49:04;;;;;;;32.83;11.90;;;;;;;28.31;50.29;95183.00;5089846;28;20234;-71
2021/06/25 06:51:32;;;;;;;37.37;10.60;;;;;;;28.60;48.95;95182.34;5079481;28;20192;-74
2021/06/25 06:54:02;;;;;;;36.67;12.13;;;;;;;28.22;48.74;95188.66;5086384;28;20373;-71
2021/06/25 06:56:29;;;;;;;38.90;12.77;;;;;;;28.44;49.07;95187.84;5081551;28;20200;-73
2021/06/25 06:58:59;;;;;;;30.37;11.03;;;;;;;28.76;48.71;95186.44;5085485;28;20226;-71
2021/06/25 07:01:29;;;;;;;38.50;12.90;;;;;;;28.60;48.10;95185.81;5077383;28;20200;-71
2021/06/25 07:04:11;;;;;;;32.30;10.60;;;;;;;28.70;48.38;95185.19;5088007;28;20206;-72
2021/06/25 07:06:38;;;;;;;30.23;10.17;;;;;;;28.99;48.56;95181.75;5082338;28;20203;-74
2021/06/25 07:09:05;;;;;;;36.13;11.63;;;;;;;29.11;47.80;95188.06;5088030;28;20311;-75
2021/06/25 07:11:32;;;;;;;33.50;10.93;;;;;;;29.14;47.69;95188.19;5093794;28;20183;-71
2021/06/25 07:13:59;;;;;;;34.83;10.70;;;;;;;29.37;47.46;95185.34;5092068;28;20290;-70
2021/06/25 07:16:25;;;;;;;35.33;12.13;;;;;;;29.17;47.69;95189.34;5088357;28;20199;-71
2021/06/25 07:18:53;;;;;;;32.20;11.47;;;;;;;29.04;45.80;95177.97;5084773;28;20637;-75
2021/06/25 07:21:19;;;;;;;35.87;11.53;;;;;;;29.15;46.94;95183.53;5094740;28;20195;-69
2021/06/25 07:23:47;;;;;;;37.17;12.67;;;;;;;29.14;45.66;95176.59;5092441;28;20703;-73
2021/06/25 07:26:14;;;;;;;30.67;12.03;;;;;;;29.14;45.46;95187.38;5092632;28;20202;-70
2021/06/25 07:28:41;;;;;;;33.43;12.13;;;;;;;29.37;44.74;95188.06;5092566;28;20704;-75
2021/06/25 07:31:08;;;;;;;35.90;11.70;;;;;;;29.50;44.81;95173.19;5077111;28;20235;-76
2021/06/25 07:33:35;;;;;;;32.57;11.93;;;;;;;29.59;45.23;95176.38;5093184;28;20290;-73
2021/06/25 07:36:02;;;;;;;34.60;12.73;;;;;;;29.21;44.90;95177.47;5092025;28;20191;-73
2021/06/25 07:38:29;;;;;;;32.17;11.17;;;;;;;29.63;46.21;95171.78;5092131;28;20222;-76
2021/06/25 07:40:57;;;;;;;34.20;12.17;;;;;;;30.01;45.42;95167.94;5092418;28;20191;-75
2021/06/25 07:43:24;;;;;;;35.73;11.27;;;;;;;30.01;47.45;95159.84;5079027;28;20618;-70
2021/06/25 07:45:52;;;;;;;42.97;12.27;;;;;;;30.27;46.16;95163.22;5091756;28;20278;-73
2021/06/25 07:48:19;;;;;;;48.93;13.77;;;;;;;30.27;45.95;95160.50;5080450;28;20223;-69
2021/06/25 07:50:45;;;;;;;41.63;12.37;;;;;;;30.42;43.82;95154.03;5090163;28;20187;-73
2021/06/25 07:53:12;;;;;;;35.60;12.40;;;;;;;30.28;44.71;95129.63;5092563;28;20300;-71
2021/06/25 07:55:43;;;;;;;38.27;11.80;;;;;;;30.49;43.34;95147.94;5092380;28;20191;-71
2021/06/25 07:58:12;;;;;;;35.10;11.97;;;;;;;30.56;42.68;95150.69;5095909;28;20191;-74
2021/06/25 08:00:39;;;;;;;37.90;11.73;;;;;;;30.70;42.48;95153.47;5081166;28;20660;-72
2021/06/25 08:03:07;;;;;;;34.40;12.50;;;;;;;30.65;43.82;95146.50;5085970;28;20200;-72
2021/06/25 08:05:35;;;;;;;34.93;12.23;;;;;;;30.74;43.54;95152.34;5071792;28;20253;-74
2021/06/25 08:08:02;;;;;;;42.27;13.07;;;;;;;30.86;44.70;95154.78;5079115;28;20298;-76
2021/06/25 08:10:29;;;;;;;45.03;13.27;;;;;;;31.11;44.29;95144.09;5085711;28;20202;-70
2021/06/25 08:12:57;;;;;;;35.80;12.73;;;;;;;31.16;43.64;95159.19;5095818;28;20214;-74
2021/06/25 08:15:24;;;;;;;32.47;11.80;;;;;;;31.18;42.65;95162.28;5085549;28;20203;-75
2021/06/25 08:17:51;;;;;;;38.47;11.93;;;;;;;31.16;43.82;95159.19;5087399;28;20195;-72
2021/06/25 08:20:18;;;;;;;47.30;17.03;;;;;;;31.24;42.68;95160.78;5091353;28;20194;-74
2021/06/25 08:22:45;;;;;;;39.97;14.17;;;;;;;31.29;42.95;95158.47;5092343;28;20229;-77
2021/06/25 08:25:12;;;;;;;36.53;11.73;;;;;;;31.61;41.08;95166.72;5093979;28;20203;-74
2021/06/25 08:27:39;;;;;;;37.33;12.80;;;;;;;31.59;40.80;95153.56;5090311;28;20225;-72
2021/06/25 08:30:06;;;;;;;39.77;11.93;;;;;;;31.80;40.39;95158.28;5090300;28;20237;-78
2021/06/25 08:32:34;;;;;;;40.43;15.07;;;;;;;31.82;42.37;95150.56;5091909;28;20195;-73
2021/06/25 08:35:02;;;;;;;37.07;12.17;;;;;;;31.85;41.61;95137.00;5091433;28;20192;-71
2021/06/25 08:37:29;;;;;;;37.37;12.40;;;;;;;31.98;40.59;95148.28;5084337;28;20744;-74
2021/06/25 08:39:56;;;;;;;41.07;12.40;;;;;;;32.00;41.82;95148.66;5071011;28;20678;-74
2021/06/25 08:42:23;;;;;;;35.17;11.57;;;;;;;32.04;40.56;95133.19;5070714;28;20590;-71
2021/06/25 08:44:50;;;;;;;38.63;11.30;;;;;;;32.16;41.17;95157.22;5071263;28;20196;-71
2021/06/25 08:47:17;;;;;;;36.57;10.63;;;;;;;32.33;40.20;95150.25;5086176;28;20201;-73
2021/06/25 08:49:48;;;;;;;42.03;11.47;;;;;;;32.32;38.83;95144.03;5081188;28;20184;-76
2021/06/25 08:52:15;;;;;;;42.03;10.97;;;;;;;32.34;38.12;95141.72;5084995;28;20217;-75
2021/06/25 08:54:43;;;;;;;38.70;11.50;;;;;;;32.65;38.26;95132.81;5071093;28;20200;-72
2021/06/25 08:57:10;;;;;;;41.23;12.40;;;;;;;32.82;38.86;95139.38;5071496;28;20578;-77
2021/06/25 08:59:37;;;;;;;40.23;10.80;;;;;;;32.78;39.39;95138.59;5091043;28;20190;-71
2021/06/25 09:02:04;;;;;;;42.37;11.10;;;;;;;32.97;40.01;95123.84;5090823;28;20678;-75
2021/06/25 09:04:38;;;;;;;33.03;9.93;;;;;;;33.10;37.00;95122.25;5089348;28;20198;-79
2021/06/25 09:07:07;;;;;;;34.77;10.87;;;;;;;32.73;34.87;95131.66;5089704;28;20691;-75
2021/06/25 09:09:37;;;;;;;33.53;8.63;;;;;;;33.07;30.44;95128.47;5091206;28;20207;-75
2021/06/25 09:12:21;;;;;;;33.40;8.30;;;;;;;33.38;31.78;95138.44;5091263;28;20649;-75
2021/06/25 09:15:07;;;;;;;29.00;8.63;;;;;;;33.42;31.33;95122.91;5076338;28;20294;-75
2021/06/25 09:17:52;;;;;;;33.70;9.97;;;;;;;33.36;31.43;95124.47;5090476;28;20249;-76
2021/06/25 09:20:32;;;;;;;29.47;8.63;;;;;;;33.73;30.63;95122.00;5090563;28;20201;-78
2021/06/25 09:22:59;;;;;;;33.17;7.83;;;;;;;33.71;29.86;95116.19;5090807;28;20187;-74
2021/06/25 09:25:26;;;;;;;37.50;9.20;;;;;;;34.07;29.34;95114.03;5091326;28;20200;-72
2021/06/25 09:27:56;;;;;;;34.00;9.10;;;;;;;33.57;29.70;95118.97;5092982;28;20199;-73
2021/06/25 09:30:26;;;;;;;36.47;8.30;;;;;;;33.33;30.21;95117.91;5095187;28;20227;-76
2021/06/25 09:32:53;;;;;;;39.00;8.83;;;;;;;34.14;30.95;95120.16;5085524;28;20249;-70
2021/06/25 09:35:23;;;;;;;30.10;8.23;;;;;;;34.53;30.25;95109.78;5100354;28;20218;-78
2021/06/25 09:37:53;;;;;;;34.40;7.93;;;;;;;34.46;30.12;95107.13;5086961;28;20195;-72
2021/06/25 09:40:21;;;;;;;42.20;9.03;;;;;;;34.50;29.12;95107.88;5084275;28;20198;-75
2021/06/25 09:43:08;;;;;;;37.17;7.90;;;;;;;34.58;29.23;95108.59;5078927;28;20226;-72
2021/06/25 09:45:35;;;;;;;31.37;8.03;;;;;;;34.34;28.53;95110.28;5090518;28;20569;-77
2021/06/25 09:48:02;;;;;;;42.77;8.27;;;;;;;34.64;28.88;95096.06;5090806;28;20203;-75
2021/06/25 09:50:33;;;;;;;36.33;9.03;;;;;;;34.74;27.73;95098.66;5091862;28;20214;-71
2021/06/25 09:53:04;;;;;;;33.90;8.27;;;;;;;34.84;28.56;95107.13;5070564;28;20223;-76
2021/06/25 09:55:48;;;;;;;35.00;8.40;;;;;;;34.60;27.56;95098.81;5085207;28;20587;-79
2021/06/25 10:03:42;;;;;;;29.43;8.10;;;;;;;35.13;28.68;95084.66;5090700;28;20289;-76
2021/06/25 10:06:14;;;;;;;31.60;7.83;;;;;;;35.22;27.87;95092.34;5070768;28;20629;-70
2021/06/25 10:08:43;;;;;;;28.80;7.70;;;;;;;35.11;28.50;95089.72;5081971;28;20306;-76
2021/06/25 10:11:13;;;;;;;28.40;7.37;;;;;;;35.01;27.07;95087.91;5089682;28;20285;-70
2021/06/25 10:13:41;;;;;;;28.87;8.00;;;;;;;35.40;27.34;95084.72;5090187;28;20203;-73
2021/06/25 10:16:12;;;;;;;32.93;6.83;;;;;;;35.38;25.23;95084.34;5089837;28;20671;-73
2021/06/25 10:18:44;;;;;;;36.43;6.57;;;;;;;35.28;23.95;95077.84;5090147;28;20191;-78
2021/06/25 10:21:17;;;;;;;37.63;7.03;;;;;;;34.95;23.58;95088.75;5090147;28;20219;-76
2021/06/25 10:23:58;;;;;;;36.90;6.80;;;;;;;35.37;24.38;95069.16;5089915;28;20241;-74
2021/06/25 10:26:26;;;;;;;39.33;7.37;;;;;;;35.85;24.65;95086.06;5089408;28;20233;-75
2021/06/25 10:28:54;;;;;;;41.07;7.93;;;;;;;35.89;22.27;95070.44;5092819;28;20692;-73
2021/06/25 10:31:23;;;;;;;34.40;6.80;;;;;;;36.01;23.05;95069.06;5098657;28;20305;-69
2021/06/25 10:33:53;;;;;;;32.23;7.53;;;;;;;35.80;23.64;95053.81;5097329;28;20191;-68
2021/06/25 10:36:29;;;;;;;34.27;7.10;;;;;;;35.57;24.36;95062.69;5090633;28;20199;-78
2021/06/25 10:39:07;;;;;;;40.70;6.80;;;;;;;36.11;25.02;95068.94;5086406;28;20192;-71
2021/06/25 10:41:50;;;;;;;33.97;6.43;;;;;;;36.09;24.57;95054.94;5083175;28;20286;-74
2021/06/25 10:44:51;;;;;;;34.50;7.97;;;;;;;35.86;24.41;95062.28;5080269;28;20195;-71
2021/06/25 10:47:28;;;;;;;33.43;6.40;;;;;;;35.53;24.48;95051.06;5093076;28;20183;-74
2021/06/25 10:49:58;;;;;;;35.10;7.43;;;;;;;35.40;24.35;95041.13;5082026;28;20219;-71
2021/06/25 10:52:26;;;;;;;37.57;6.87;;;;;;;35.76;24.77;95053.06;5077177;28;20206;-68
2021/06/25 10:55:03;;;;;;;32.93;6.90;;;;;;;35.95;24.57;95048.94;5093393;28;20628;-75
2021/06/25 10:57:32;;;;;;;32.23;7.90;;;;;;;36.21;24.61;95046.13;5089272;28;20191;-70
2021/06/25 10:59:59;;;;;;;30.40;6.67;;;;;;;36.40;24.02;95050.91;5083028;28;20223;-69
2021/06/25 11:02:44;;;;;;;38.30;7.13;;;;;;;35.85;23.98;95044.38;5090966;28;20195;-73
2021/06/25 11:05:26;;;;;;;43.07;7.40;;;;;;;36.20;22.82;95049.28;5072266;28;20282;-74
2021/06/25 11:08:12;;;;;;;34.23;7.30;;;;;;;36.28;23.17;95032.38;5077974;28;20203;-74
2021/06/25 11:10:48;;;;;;;36.00;6.10;;;;;;;36.00;22.88;95030.13;5093174;28;20625;-74
2021/06/25 11:13:21;;;;;;;40.20;7.40;;;;;;;36.22;22.82;95042.22;5093011;28;20252;-74
2021/06/25 11:15:53;;;;;;;45.07;8.07;;;;;;;36.67;24.31;95028.97;5092018;28;20779;-74
2021/06/25 11:18:23;;;;;;;36.43;7.93;;;;;;;36.60;23.20;95035.34;5093049;28;20618;-74
2021/06/25 11:20:56;;;;;;;31.87;6.70;;;;;;;36.84;22.96;95032.56;5092857;28;20203;-68
2021/06/25 11:23:26;;;;;;;38.20;7.77;;;;;;;36.67;21.94;95028.19;5092873;28;20203;-73
2021/06/25 11:26:00;;;;;;;27.40;6.17;;;;;;;36.78;21.06;95023.28;5091977;28;20195;-73
2021/06/25 11:28:31;;;;;;;33.07;7.23;;;;;;;36.47;19.88;95034.41;5092647;28;20692;-71
2021/06/25 11:31:20;;;;;;;38.83;7.10;;;;;;;37.07;20.79;95029.75;5091820;28;20321;-76
2021/06/25 11:33:49;;;;;;;36.13;7.57;;;;;;;36.67;20.33;95039.09;5092417;28;20199;-73
2021/06/25 11:36:54;;;;;;;42.30;7.43;;;;;;;36.65;19.86;95031.34;5071093;28;20574;-72
2021/06/25 11:39:34;;;;;;;41.60;7.40;;;;;;;37.10;19.81;95034.41;5074439;28;20230;-72
2021/06/25 11:42:19;;;;;;;38.07;7.10;;;;;;;37.25;19.76;95036.41;5092107;28;20199;-75
2021/06/25 11:44:51;;;;;;;42.40;7.67;;;;;;;37.49;20.93;95034.34;5091760;28;20195;-70
2021/06/25 11:47:25;;;;;;;41.20;7.57;;;;;;;37.71;19.04;95029.94;5092079;28;20301;-72